Time;durP1;ratioP1;P1;durP2;ratioP2;P2;SDS_P1;SDS_P2;PMS_P1;PMS_P2;Temp;Humidity;BMP_temperature;BMP_pressure;BME280_temperature;BME280_humidity;BME280_pressure;Samples;Min_cycle;Max_cycle;Signal;HPM_P1;HPM_P2
2022/02/25 00:00:37;;;;;;;26.85;14.25;;;;;;;-1.53;80.32;98030.45;1702152;84;21392;-81
2022/02/25 00:03:06;;;;;;;32.35;14.20;;;;;;;-1.61;80.35;98037.66;1699629;84;21044;-81
2022/02/25 00:05:36;;;;;;;29.70;14.35;;;;;;;-1.65;80.82;98037.18;1699923;84;21021;-81
2022/02/25 00:08:03;;;;;;;25.15;13.25;;;;;;;-1.66;80.24;98035.40;1700748;83;21052;-81
2022/02/25 00:10:30;;;;;;;29.48;13.03;;;;;;;-1.75;80.29;98039.11;1726814;83;21001;-81
2022/02/25 00:12:57;;;;;;;31.07;14.15;;;;;;;-1.80;80.17;98047.23;1723961;83;21796;-81
2022/02/25 00:15:24;;;;;;;32.10;13.65;;;;;;;-1.86;81.11;98044.11;1723682;83;21025;-81
2022/02/25 00:17:50;;;;;;;35.15;14.70;;;;;;;-1.94;80.23;98040.46;1723939;83;21438;-80
2022/02/25 00:20:17;;;;;;;30.08;13.95;;;;;;;-1.96;80.35;98036.97;1713228;83;21041;-81
2022/02/25 00:22:43;;;;;;;29.67;13.38;;;;;;;-2.00;80.36;98026.91;1705605;84;21013;-81
2022/02/25 00:25:12;;;;;;;33.28;15.00;;;;;;;-2.04;80.78;98029.02;1708091;83;20982;-80
2022/02/25 00:27:40;;;;;;;32.85;15.25;;;;;;;-2.01;80.68;98019.97;1725343;83;20972;-80
2022/02/25 00:30:11;;;;;;;29.70;14.85;;;;;;;-2.04;80.46;98023.83;1721125;83;21462;-80
2022/02/25 00:32:38;;;;;;;35.55;16.30;;;;;;;-2.07;80.42;98015.95;1720345;83;21099;-80
2022/02/25 00:35:06;;;;;;;31.10;15.48;;;;;;;-2.06;80.66;98013.80;1720141;83;21125;-80
2022/02/25 00:37:33;;;;;;;34.48;15.28;;;;;;;-2.12;80.95;98011.95;1720074;83;21068;-80
2022/02/25 00:40:02;;;;;;;30.70;15.50;;;;;;;-2.17;80.61;98007.97;1722079;83;21395;-80
2022/02/25 00:42:28;;;;;;;32.20;14.20;;;;;;;-2.18;80.57;98009.23;1723648;83;21120;-80
2022/02/25 00:44:55;;;;;;;30.50;15.28;;;;;;;-2.21;80.89;98010.03;1723538;83;21379;-80
2022/02/25 00:47:21;;;;;;;36.28;15.80;;;;;;;-2.16;80.68;98002.36;1723581;83;21009;-80
2022/02/25 00:49:48;;;;;;;34.30;15.05;;;;;;;-2.18;80.81;98001.03;1730952;83;21048;-80
2022/02/25 00:52:15;;;;;;;33.63;16.37;;;;;;;-2.20;80.57;98009.19;1734595;83;21434;-80
2022/02/25 00:54:43;;;;;;;35.00;16.52;;;;;;;-2.24;80.59;98002.61;1734519;83;21027;-80
2022/02/25 00:57:10;;;;;;;37.42;16.57;;;;;;;-2.24;80.69;98003.50;1734171;82;21032;-80
2022/02/25 00:59:37;;;;;;;32.63;16.32;;;;;;;-2.25;80.74;98009.51;1729011;83;21016;-80
2022/02/25 01:02:04;;;;;;;28.65;15.40;;;;;;;-2.21;80.74;98008.73;1720435;83;21067;-80
2022/02/25 01:04:31;;;;;;;34.20;15.70;;;;;;;-2.23;80.82;98008.25;1718967;83;21048;-80
2022/02/25 01:06:57;;;;;;;32.88;16.00;;;;;;;-2.23;80.84;98003.95;1720438;83;21048;-81
2022/02/25 01:09:25;;;;;;;33.83;15.48;;;;;;;-2.23;80.83;98012.14;1725510;83;20992;-81
2022/02/25 01:11:52;;;;;;;34.43;15.72;;;;;;;-2.26;81.22;98006.47;1734032;83;21082;-81
2022/02/25 01:14:19;;;;;;;30.35;15.32;;;;;;;-2.26;82.94;98007.36;1734466;83;21072;-81
2022/02/25 01:16:46;;;;;;;32.17;16.87;;;;;;;-2.29;81.58;98013.77;1733130;83;21012;-81
2022/02/25 01:19:12;;;;;;;35.23;15.93;;;;;;;-2.29;81.19;98018.06;1721141;83;21047;-81
2022/02/25 01:21:39;;;;;;;38.33;16.37;;;;;;;-2.28;80.88;98017.25;1722189;83;21037;-81
2022/02/25 01:24:05;;;;;;;40.67;16.27;;;;;;;-2.32;81.04;98016.28;1725510;83;21417;-81
2022/02/25 01:26:33;;;;;;;36.00;15.55;;;;;;;-2.31;82.04;98022.36;1732790;82;21007;-80
2022/02/25 01:29:01;;;;;;;32.93;15.72;;;;;;;-2.30;80.98;98024.11;1713222;84;21035;-79
2022/02/25 01:31:27;;;;;;;39.00;15.00;;;;;;;-2.31;81.14;98015.88;1705516;84;21055;-79
2022/02/25 01:33:54;;;;;;;31.07;14.98;;;;;;;-2.29;81.00;98015.47;1705508;84;21449;-79
2022/02/25 01:36:20;;;;;;;29.18;14.35;;;;;;;-2.34;82.73;98022.28;1716644;83;20976;-79
2022/02/25 01:38:47;;;;;;;29.95;14.00;;;;;;;-2.39;81.83;98020.90;1733760;83;21314;-79
2022/02/25 01:41:14;;;;;;;33.20;15.08;;;;;;;-2.40;81.76;98026.94;1704134;84;21404;-79
2022/02/25 01:43:41;;;;;;;30.10;14.30;;;;;;;-2.44;81.56;98017.32;1704408;84;21013;-80
2022/02/25 01:46:08;;;;;;;34.10;15.68;;;;;;;-2.45;81.33;98020.77;1708441;84;21047;-81
2022/02/25 01:48:35;;;;;;;33.75;17.37;;;;;;;-2.47;81.70;98030.22;1678351;85;21055;-81
2022/02/25 01:51:04;;;;;;;39.85;17.15;;;;;;;-2.54;82.22;98026.59;1703861;83;20987;-81
2022/02/25 01:53:30;;;;;;;35.13;17.00;;;;;;;-2.60;82.46;98029.06;1680302;85;22194;-82
2022/02/25 01:55:57;;;;;;;31.73;16.17;;;;;;;-2.67;82.14;98026.33;1710807;83;21015;-80
2022/02/25 01:58:25;;;;;;;44.35;18.25;;;;;;;-2.67;82.22;98023.73;1716263;83;21021;-81
2022/02/25 02:00:52;;;;;;;37.95;17.60;;;;;;;-2.67;81.95;98016.36;1690593;84;21473;-81
2022/02/25 02:03:18;;;;;;;41.18;18.73;;;;;;;-2.70;82.13;98017.61;1719419;83;21056;-81
2022/02/25 02:05:45;;;;;;;35.80;17.45;;;;;;;-2.74;82.17;98013.18;1694399;84;21056;-81
2022/02/25 02:08:12;;;;;;;32.53;16.97;;;;;;;-2.77;81.70;98007.91;1720841;83;20990;-81
2022/02/25 02:10:40;;;;;;;36.73;17.12;;;;;;;-2.79;81.68;98005.27;1709978;84;21419;-80
2022/02/25 02:13:07;;;;;;;42.20;17.40;;;;;;;-2.81;81.67;98008.26;1709958;84;21041;-79
2022/02/25 02:15:34;;;;;;;39.63;17.55;;;;;;;-2.82;81.69;97999.59;1709374;84;21021;-79
2022/02/25 02:18:01;;;;;;;33.85;16.17;;;;;;;-2.82;81.75;97994.84;1683345;84;21059;-78
2022/02/25 02:20:27;;;;;;;29.82;15.48;;;;;;;-2.85;81.35;97994.76;1709413;84;21027;-79
2022/02/25 02:22:54;;;;;;;40.38;17.60;;;;;;;-2.88;81.58;97996.86;1699538;84;20970;-80
2022/02/25 02:25:21;;;;;;;35.98;15.45;;;;;;;-2.88;81.44;97992.97;1706570;84;21040;-79
2022/02/25 02:30:32;;;;;;;;;;;;;;;-2.99;81.58;98012.59;1712484;84;21021;-80
2022/02/25 02:32:59;;;;;;;36.48;16.75;;;;;;;-2.99;81.90;98010.85;1710037;84;20164;-80
2022/02/25 02:35:26;;;;;;;38.08;17.32;;;;;;;-2.99;81.75;98003.52;1700621;84;21060;-80
2022/02/25 02:37:52;;;;;;;45.52;18.10;;;;;;;-2.99;82.03;98005.66;1695975;84;21009;-79
2022/02/25 02:40:19;;;;;;;34.73;17.23;;;;;;;-3.00;81.69;98012.13;1695848;85;21028;-79
2022/02/25 02:42:46;;;;;;;33.75;15.63;;;;;;;-3.05;81.57;98010.70;1695883;84;21075;-80
2022/02/25 02:45:15;;;;;;;37.40;16.07;;;;;;;-3.09;81.78;97999.80;1698264;84;21024;-79
2022/02/25 02:47:42;;;;;;;39.20;15.50;;;;;;;-3.10;81.95;98005.42;1699111;84;21517;-79
2022/02/25 02:50:09;;;;;;;31.02;14.43;;;;;;;-3.12;82.90;97998.00;1698864;84;21080;-79
2022/02/25 02:52:36;;;;;;;26.50;14.85;;;;;;;-3.16;82.28;97994.02;1699008;84;21067;-79
2022/02/25 02:55:04;;;;;;;28.23;13.18;;;;;;;-3.23;82.63;97994.28;1697319;84;21085;-81
2022/02/25 02:57:30;;;;;;;28.00;13.20;;;;;;;-3.30;83.03;97994.53;1703504;84;21023;-79
2022/02/25 02:59:57;;;;;;;30.35;13.40;;;;;;;-3.40;83.24;97986.95;1713338;84;21031;-79
2022/02/25 03:02:23;;;;;;;28.75;13.90;;;;;;;-3.47;82.32;97980.73;1713183;84;21028;-79
2022/02/25 03:04:50;;;;;;;30.85;12.73;;;;;;;-3.48;82.59;97980.69;1713902;82;20996;-80
2022/02/25 03:07:17;;;;;;;32.45;13.80;;;;;;;-3.51;82.72;97987.08;1713362;84;21032;-79
2022/02/25 03:09:45;;;;;;;30.77;14.58;;;;;;;-3.49;82.61;97972.46;1713489;84;20968;-79
2022/02/25 03:12:11;;;;;;;29.82;14.60;;;;;;;-3.46;82.78;97977.30;1713161;84;21055;-79
2022/02/25 03:14:38;;;;;;;36.58;14.63;;;;;;;-3.45;82.85;97983.34;1714238;82;21457;-79
2022/02/25 03:17:05;;;;;;;34.83;15.05;;;;;;;-3.44;82.72;97985.12;1713388;84;21074;-79
2022/02/25 03:19:35;;;;;;;30.05;13.70;;;;;;;-3.40;82.38;97984.77;1713255;84;21481;-79
2022/02/25 03:22:01;;;;;;;39.95;16.17;;;;;;;-3.43;82.17;97983.38;1722031;82;21020;-79
2022/02/25 03:24:28;;;;;;;34.05;14.87;;;;;;;-3.39;82.22;97984.82;1739303;82;21008;-79
2022/02/25 03:26:54;;;;;;;28.17;14.07;;;;;;;-3.45;82.35;97982.94;1739142;82;21007;-80
2022/02/25 03:29:21;;;;;;;29.70;13.50;;;;;;;-3.47;82.45;97982.03;1739375;82;21568;-79
2022/02/25 03:31:47;;;;;;;40.67;15.05;;;;;;;-3.49;82.23;97977.65;1740868;82;21002;-79
2022/02/25 03:34:14;;;;;;;32.58;14.87;;;;;;;-3.51;82.62;97977.59;1742992;82;20998;-79
2022/02/25 03:36:41;;;;;;;31.73;15.60;;;;;;;-3.55;82.52;97979.65;1745470;82;21011;-78
2022/02/25 03:39:08;;;;;;;31.73;14.87;;;;;;;-3.56;82.47;97976.60;1743666;82;21030;-79
2022/02/25 03:41:34;;;;;;;36.30;14.45;;;;;;;-3.58;82.29;97973.97;1727594;82;21091;-80
2022/02/25 03:44:01;;;;;;;31.15;14.28;;;;;;;-3.61;82.72;97976.91;1713265;84;21080;-79
2022/02/25 03:46:28;;;;;;;33.08;14.78;;;;;;;-3.64;82.78;97981.98;1713045;84;21566;-79
2022/02/25 03:48:54;;;;;;;27.55;14.33;;;;;;;-3.66;82.25;97978.06;1713117;84;21036;-79
2022/02/25 03:51:21;;;;;;;30.55;15.00;;;;;;;-3.63;82.30;97963.02;1725084;82;21005;-79
2022/02/25 03:53:48;;;;;;;33.25;14.58;;;;;;;-3.61;82.15;97966.54;1742634;82;20994;-79
2022/02/25 03:56:17;;;;;;;29.10;14.15;;;;;;;-3.64;82.16;97965.16;1715599;82;21437;-79
2022/02/25 03:58:44;;;;;;;31.17;14.87;;;;;;;-3.66;82.26;97961.66;1740224;82;21410;-79
2022/02/25 04:01:11;;;;;;;35.95;15.10;;;;;;;-3.68;82.00;97956.84;1738889;82;21047;-79
2022/02/25 04:03:37;;;;;;;33.10;14.85;;;;;;;-3.73;82.06;97956.30;1738075;82;20984;-79
2022/02/25 04:06:04;;;;;;;27.62;14.00;;;;;;;-3.73;82.17;97959.32;1738298;82;21413;-80
2022/02/25 04:08:33;;;;;;;29.05;14.23;;;;;;;-3.71;82.29;97958.93;1738185;82;21300;-80
2022/02/25 04:11:00;;;;;;;31.35;16.00;;;;;;;-3.68;82.30;97964.61;1738307;82;21364;-80
2022/02/25 04:13:26;;;;;;;35.90;15.70;;;;;;;-3.71;82.02;97953.75;1738465;82;21055;-80
2022/02/25 04:15:53;;;;;;;37.80;16.05;;;;;;;-3.71;82.40;97960.22;1738346;82;21000;-80
2022/02/25 04:18:19;;;;;;;30.75;15.48;;;;;;;-3.72;82.27;97960.66;1738090;82;21067;-80
2022/02/25 04:20:46;;;;;;;30.48;15.53;;;;;;;-3.70;82.21;97952.91;1734792;82;20988;-80
2022/02/25 04:23:13;;;;;;;31.52;15.40;;;;;;;-3.73;82.36;97948.52;1724012;82;21033;-80
2022/02/25 04:25:39;;;;;;;33.85;15.72;;;;;;;-3.72;82.23;97948.12;1739871;82;20998;-80
2022/02/25 04:28:06;;;;;;;38.25;16.45;;;;;;;-3.78;81.82;97942.78;1739772;82;21518;-80
2022/02/25 04:30:32;;;;;;;36.63;16.15;;;;;;;-3.80;82.50;97940.14;1739059;82;21002;-80
2022/02/25 04:32:59;;;;;;;29.52;14.98;;;;;;;-3.78;82.79;97942.34;1738262;82;21090;-80
2022/02/25 04:35:26;;;;;;;34.03;17.30;;;;;;;-3.78;82.41;97949.26;1738278;82;21015;-80
2022/02/25 04:37:53;;;;;;;35.48;17.32;;;;;;;-3.80;82.27;97955.69;1738168;82;21446;-80
2022/02/25 04:40:20;;;;;;;37.70;16.80;;;;;;;-3.80;82.33;97950.91;1721042;82;21414;-80
2022/02/25 04:42:47;;;;;;;34.90;15.65;;;;;;;-3.80;82.19;97953.50;1710203;84;21024;-80
2022/02/25 04:45:14;;;;;;;35.40;16.37;;;;;;;-3.83;81.95;97951.70;1710365;84;20972;-80
2022/02/25 04:47:44;;;;;;;36.68;16.20;;;;;;;-3.86;82.03;97947.32;1710322;83;21051;-80
2022/02/25 04:50:12;;;;;;;43.38;16.35;;;;;;;-3.83;82.09;97958.18;1714006;82;20996;-80
2022/02/25 04:52:42;;;;;;;30.37;14.95;;;;;;;-3.86;82.93;97959.41;1703263;84;21007;-80
2022/02/25 04:55:13;;;;;;;31.60;15.30;;;;;;;-3.90;82.27;97965.34;1702832;84;21091;-80
2022/02/25 04:57:41;;;;;;;36.48;15.85;;;;;;;-3.98;82.42;97963.83;1713068;83;21038;-80
2022/02/25 05:00:13;;;;;;;34.98;15.98;;;;;;;-4.00;82.37;97959.01;1704372;84;21016;-80
2022/02/25 05:02:45;;;;;;;36.33;16.50;;;;;;;-4.01;82.16;97958.15;1735203;83;20999;-80
2022/02/25 05:05:13;;;;;;;35.10;16.05;;;;;;;-4.01;82.27;97959.45;1704638;84;21020;-80
2022/02/25 05:07:39;;;;;;;39.23;16.90;;;;;;;-4.03;81.96;97954.62;1731919;83;21464;-80
2022/02/25 05:10:08;;;;;;;33.63;17.05;;;;;;;-4.04;82.05;97956.76;1676313;86;21059;-80
2022/02/25 05:12:34;;;;;;;40.85;17.37;;;;;;;-4.06;81.91;97957.55;1705905;84;20991;-80
2022/02/25 05:20:31;;;;;;;43.13;18.15;;;;;;;-4.12;82.29;97960.43;1676515;86;21031;-79
2022/02/25 05:23:01;;;;;;;34.98;15.50;;;;;;;-4.15;82.20;97959.47;1707492;81;20948;-79
2022/02/25 05:25:29;;;;;;;35.17;16.10;;;;;;;-4.17;82.30;97958.13;1676137;86;21032;-79
2022/02/25 05:27:59;;;;;;;31.02;14.83;;;;;;;-4.16;82.50;97965.05;1706066;84;21026;-80
2022/02/25 05:30:27;;;;;;;35.58;17.05;;;;;;;-4.18;82.72;97968.03;1704118;84;21064;-80
2022/02/25 05:32:54;;;;;;;35.52;17.05;;;;;;;-4.15;82.48;97978.89;1704541;84;21001;-79
2022/02/25 05:35:21;;;;;;;34.33;16.10;;;;;;;-4.14;82.59;97972.87;1720098;83;21452;-82
2022/02/25 05:37:48;;;;;;;35.23;15.70;;;;;;;-4.08;82.43;97970.88;1676341;86;21057;-80
2022/02/25 05:40:17;;;;;;;30.20;14.80;;;;;;;-4.07;82.96;97971.34;1706118;84;21035;-80
2022/02/25 05:42:45;;;;;;;34.70;15.55;;;;;;;-4.05;82.29;97980.01;1682891;84;20989;-80
2022/02/25 05:45:13;;;;;;;37.03;15.72;;;;;;;-4.09;82.22;97983.34;1735146;83;21000;-80
2022/02/25 05:47:41;;;;;;;32.53;15.75;;;;;;;-4.11;82.55;97989.36;1699390;84;21039;-79
2022/02/25 05:50:18;;;;;;;33.15;14.98;;;;;;;-4.09;82.32;97990.70;1728764;83;21008;-80
2022/02/25 05:52:46;;;;;;;33.90;14.35;;;;;;;-4.05;82.22;97983.89;1706499;83;21050;-80
2022/02/25 05:55:16;;;;;;;28.40;14.05;;;;;;;-4.05;82.37;97988.66;1676325;86;21036;-79
2022/02/25 05:57:45;;;;;;;32.33;14.53;;;;;;;-4.02;82.30;97980.11;1713713;83;21042;-80
2022/02/25 06:00:15;;;;;;;30.10;14.75;;;;;;;-3.93;82.37;97983.36;1735353;82;21034;-79
2022/02/25 06:02:44;;;;;;;24.77;12.65;;;;;;;-3.89;82.44;97979.63;1738601;82;20994;-79
2022/02/25 06:05:11;;;;;;;35.03;14.95;;;;;;;-3.82;82.33;97982.38;1739791;82;21464;-78
2022/02/25 06:07:38;;;;;;;28.90;13.78;;;;;;;-3.76;82.12;97985.12;1739560;82;20963;-80
2022/02/25 06:10:06;;;;;;;29.05;14.33;;;;;;;-3.71;82.13;97974.47;1739865;82;21038;-79
2022/02/25 06:12:33;;;;;;;29.65;13.38;;;;;;;-3.58;82.31;97980.84;1736073;82;21058;-79
2022/02/25 06:15:00;;;;;;;36.33;15.80;;;;;;;-3.53;82.22;97990.05;1710205;84;20987;-81
2022/02/25 06:17:27;;;;;;;35.35;16.20;;;;;;;-3.60;82.84;97992.90;1710166;84;21054;-78
2022/02/25 06:19:53;;;;;;;31.85;14.87;;;;;;;-3.50;82.77;97986.23;1709995;84;21397;-79
2022/02/25 06:22:20;;;;;;;31.70;14.45;;;;;;;-3.40;82.29;97991.25;1710733;82;21022;-78
2022/02/25 06:24:47;;;;;;;31.23;14.18;;;;;;;-3.31;82.21;97988.46;1739589;82;21484;-82
2022/02/25 06:27:14;;;;;;;34.90;16.17;;;;;;;-3.21;82.34;97987.40;1737754;82;21058;-81
2022/02/25 06:29:40;;;;;;;28.98;14.58;;;;;;;-3.20;81.94;97998.25;1739209;82;21038;-81
2022/02/25 06:32:07;;;;;;;37.17;15.55;;;;;;;-3.16;82.23;97997.47;1728995;82;21523;-80
2022/02/25 06:34:35;;;;;;;37.03;16.40;;;;;;;-3.11;81.95;98001.05;1729221;82;21083;-80
2022/02/25 06:37:02;;;;;;;34.55;15.83;;;;;;;-3.04;82.01;98007.27;1738409;82;21468;-80
2022/02/25 06:39:28;;;;;;;36.30;17.77;;;;;;;-2.95;82.04;97997.13;1738870;82;20990;-80
2022/02/25 06:41:55;;;;;;;38.15;17.62;;;;;;;-2.87;82.56;97999.91;1738389;82;21471;-80
2022/02/25 06:44:21;;;;;;;33.58;16.95;;;;;;;-2.77;81.93;97996.23;1710340;82;21054;-80
2022/02/25 06:46:48;;;;;;;37.15;17.45;;;;;;;-2.70;82.00;97992.96;1739666;82;21389;-80
2022/02/25 06:49:15;;;;;;;33.30;17.55;;;;;;;-2.62;81.83;97993.13;1739795;82;20972;-81
2022/02/25 06:51:41;;;;;;;39.60;17.35;;;;;;;-2.55;81.83;97993.72;1738053;82;21003;-81
2022/02/25 06:54:08;;;;;;;36.40;17.87;;;;;;;-2.46;82.00;97998.26;1712181;82;21373;-81
2022/02/25 06:56:35;;;;;;;41.05;18.12;;;;;;;-2.40;81.99;98006.17;1710510;84;21015;-81
2022/02/25 06:59:02;;;;;;;34.92;16.77;;;;;;;-2.37;81.81;98010.55;1710293;83;21031;-81
2022/02/25 07:01:29;;;;;;;44.67;18.02;;;;;;;-2.40;81.86;98003.58;1717863;82;21014;-81
2022/02/25 07:03:55;;;;;;;41.92;17.48;;;;;;;-2.34;81.92;98019.28;1739833;82;21027;-80
2022/02/25 07:06:24;;;;;;;42.40;18.32;;;;;;;-2.27;82.18;98001.72;1739859;82;21388;-81
2022/02/25 07:08:51;;;;;;;38.05;17.15;;;;;;;-2.17;81.83;98008.38;1739773;82;21630;-81
2022/02/25 07:11:20;;;;;;;45.23;17.73;;;;;;;-2.07;81.84;97996.48;1734743;82;21050;-81
2022/02/25 07:13:48;;;;;;;41.95;20.25;;;;;;;-2.02;81.52;98000.94;1710365;84;21010;-81
2022/02/25 07:16:16;;;;;;;36.77;16.65;;;;;;;-1.96;82.01;98000.16;1710426;84;21111;-81
2022/02/25 07:18:43;;;;;;;40.95;16.97;;;;;;;-1.93;81.76;97997.64;1710471;84;21023;-81
2022/02/25 07:21:11;;;;;;;43.78;18.65;;;;;;;-1.92;81.51;98004.58;1713430;82;20983;-81
2022/02/25 07:23:39;;;;;;;42.03;18.45;;;;;;;-1.87;81.43;98002.95;1738217;82;21074;-81
2022/02/25 07:26:08;;;;;;;47.40;19.60;;;;;;;-1.93;81.78;98008.03;1738290;82;21079;-81
2022/02/25 07:28:35;;;;;;;42.38;18.98;;;;;;;-1.98;81.65;98009.66;1738355;82;20991;-81
2022/02/25 07:31:02;;;;;;;36.13;18.32;;;;;;;-2.02;81.84;98006.13;1723345;82;21020;-80
2022/02/25 07:33:29;;;;;;;43.25;18.07;;;;;;;-2.06;82.40;98001.71;1703389;84;21106;-81
2022/02/25 07:35:56;;;;;;;42.98;18.95;;;;;;;-2.05;82.08;97998.27;1713271;84;21320;-81
2022/02/25 07:38:24;;;;;;;43.55;18.80;;;;;;;-2.03;82.02;97999.16;1713331;84;21026;-81
2022/02/25 07:40:51;;;;;;;39.70;19.15;;;;;;;-2.01;82.01;97996.59;1726476;82;21214;-81
2022/02/25 07:43:19;;;;;;;41.05;18.80;;;;;;;-1.98;81.77;97990.17;1714818;82;20979;-82
2022/02/25 07:45:49;;;;;;;45.08;18.57;;;;;;;-1.93;81.86;97988.96;1742601;82;21042;-82
2022/02/25 07:48:18;;;;;;;38.23;19.12;;;;;;;-1.92;82.66;97979.02;1742750;82;21043;-81
2022/02/25 07:50:45;;;;;;;41.25;20.55;;;;;;;-1.86;82.21;97981.31;1725606;82;21010;-81
2022/02/25 07:53:12;;;;;;;36.73;18.40;;;;;;;-1.83;82.81;97977.91;1713080;84;20999;-82
2022/02/25 07:55:39;;;;;;;39.85;19.62;;;;;;;-1.81;82.61;97974.93;1713226;84;21030;-83
2022/02/25 07:58:06;;;;;;;46.68;19.00;;;;;;;-1.71;82.19;97960.82;1724892;82;20984;-80
2022/02/25 08:00:34;;;;;;;39.98;18.60;;;;;;;-1.62;82.58;97967.49;1728438;82;20979;-81
2022/02/25 08:03:02;;;;;;;35.78;19.07;;;;;;;-1.53;82.10;97968.93;1732411;82;21011;-81
2022/02/25 08:05:31;;;;;;;40.33;19.40;;;;;;;-1.40;81.89;97975.26;1719629;82;21503;-82
2022/02/25 08:08:00;;;;;;;43.95;19.87;;;;;;;-1.27;82.08;97969.84;1725086;83;21014;-82
2022/02/25 08:10:27;;;;;;;43.00;22.52;;;;;;;-1.13;81.94;97966.16;1730780;82;21063;-81
2022/02/25 08:12:54;;;;;;;47.62;22.20;;;;;;;-0.96;81.60;97961.23;1742082;82;21477;-81
2022/02/25 08:15:21;;;;;;;37.30;18.85;;;;;;;-0.80;81.33;97958.45;1709762;84;21046;-81
2022/02/25 08:17:47;;;;;;;45.35;21.40;;;;;;;-0.68;81.06;97972.08;1709563;84;20995;-81
2022/02/25 08:20:14;;;;;;;41.73;20.65;;;;;;;-0.55;80.82;97961.84;1714531;83;21447;-82
2022/02/25 08:22:41;;;;;;;49.60;22.15;;;;;;;-0.44;80.56;97960.70;1678035;84;21055;-82
2022/02/25 08:25:08;;;;;;;40.90;20.77;;;;;;;-0.34;80.56;97956.50;1735009;83;21031;-82
2022/02/25 08:27:35;;;;;;;45.17;22.67;;;;;;;-0.23;80.26;97950.11;1734891;83;21394;-81
2022/02/25 08:30:17;;;;;;;41.68;21.90;;;;;;;-0.16;79.27;97938.93;1728506;83;21033;-90
2022/02/25 08:32:50;;;;;;;45.25;20.50;;;;;;;-0.07;79.89;97939.46;1705763;84;21485;-87
2022/02/25 08:35:19;;;;;;;48.87;22.10;;;;;;;0.08;79.92;97929.66;1705604;84;21003;-85
2022/02/25 08:37:47;;;;;;;48.48;22.32;;;;;;;0.20;79.79;97928.92;1705718;84;21010;-87
2022/02/25 08:40:16;;;;;;;50.48;22.70;;;;;;;0.27;77.60;97926.81;1707617;83;21023;-85
2022/02/25 08:42:43;;;;;;;43.28;22.45;;;;;;;0.35;78.77;97921.27;1705791;84;21450;-89
2022/02/25 08:45:13;;;;;;;44.58;21.65;;;;;;;0.42;78.37;97927.41;1715747;83;21432;-86
2022/02/25 08:47:42;;;;;;;50.23;23.70;;;;;;;0.44;77.12;97930.90;1715994;83;21039;-87
2022/02/25 08:50:11;;;;;;;48.25;23.18;;;;;;;0.55;77.82;97917.09;1711628;83;21086;-87
2022/02/25 08:52:38;;;;;;;48.78;23.05;;;;;;;0.66;78.02;97914.13;1704550;83;21135;-87
2022/02/25 08:55:06;;;;;;;44.77;22.52;;;;;;;0.77;77.96;97909.02;1705513;84;21440;-87
2022/02/25 08:57:33;;;;;;;50.75;24.15;;;;;;;0.89;77.22;97903.03;1705517;84;21050;-87
2022/02/25 08:59:59;;;;;;;45.83;21.97;;;;;;;0.99;77.51;97897.02;1721844;83;21496;-87
2022/02/25 09:02:26;;;;;;;46.63;23.07;;;;;;;1.09;77.50;97902.30;1703986;84;21103;-88
2022/02/25 09:04:53;;;;;;;51.70;22.40;;;;;;;1.18;77.46;97893.23;1730378;83;20960;-88
2022/02/25 09:07:19;;;;;;;39.38;20.32;;;;;;;1.26;77.26;97891.55;1704406;84;21469;-87
2022/02/25 09:09:46;;;;;;;40.28;18.23;;;;;;;1.33;77.09;97890.27;1708523;83;21026;-87
2022/02/25 09:12:13;;;;;;;43.15;18.30;;;;;;;1.36;75.77;97888.99;1676294;86;21521;-87
2022/02/25 09:14:40;;;;;;;43.78;17.20;;;;;;;1.44;76.23;97891.19;1701197;84;21448;-87
2022/02/25 09:17:07;;;;;;;38.78;17.30;;;;;;;1.52;76.50;97888.62;1676329;86;21079;-88
2022/02/25 09:19:34;;;;;;;36.70;17.32;;;;;;;1.55;76.27;97893.45;1720328;83;21030;-87
2022/02/25 09:22:04;;;;;;;34.27;16.37;;;;;;;1.65;75.99;97886.93;1704460;84;21082;-87
2022/02/25 09:24:33;;;;;;;30.55;16.05;;;;;;;1.72;76.08;97887.41;1730334;83;21023;-87
2022/02/25 09:27:00;;;;;;;34.00;15.13;;;;;;;1.81;74.92;97890.48;1704467;84;21032;-86
2022/02/25 09:29:29;;;;;;;32.95;14.40;;;;;;;1.93;75.19;97879.20;1713390;83;21054;-87
2022/02/25 09:32:03;;;;;;;28.23;14.35;;;;;;;2.05;74.01;97892.75;1676169;86;21117;-88
2022/02/25 09:34:29;;;;;;;;;;;;;;;2.16;74.42;97887.56;1704224;84;21491;-86
2022/02/25 09:36:56;;;;;;;31.17;15.13;;;;;;;2.28;73.85;97875.80;1676295;84;20258;-87
2022/02/25 09:39:22;;;;;;;31.87;14.55;;;;;;;2.36;74.13;97872.78;1690079;83;21076;-86
2022/02/25 09:41:49;;;;;;;26.15;12.53;;;;;;;2.38;72.61;97874.95;1694906;84;21028;-87
2022/02/25 09:44:17;;;;;;;25.82;12.28;;;;;;;2.44;72.43;97876.70;1685233;84;21031;-77
2022/02/25 09:46:44;;;;;;;24.57;13.38;;;;;;;2.52;73.42;97871.94;1680353;85;21051;-77
2022/02/25 09:49:12;;;;;;;29.15;13.40;;;;;;;2.59;72.54;97876.28;1680461;85;21110;-78
2022/02/25 09:51:38;;;;;;;34.25;14.05;;;;;;;2.69;72.92;97874.10;1680824;85;21071;-78
2022/02/25 09:54:09;;;;;;;28.85;14.45;;;;;;;2.83;72.48;97878.02;1685222;84;21008;-78
2022/02/25 09:56:35;;;;;;;26.07;13.45;;;;;;;2.98;71.89;97881.08;1681388;85;21039;-78
2022/02/25 09:59:02;;;;;;;30.17;13.85;;;;;;;3.10;71.79;97878.88;1674542;85;21039;-78
2022/02/25 10:01:35;;;;;;;27.10;13.20;;;;;;;3.19;71.72;97874.05;1658449;85;21493;-78
2022/02/25 10:04:22;;;;;;;24.43;12.47;;;;;;;3.33;70.96;97860.06;1684205;85;21045;-78
2022/02/25 10:06:50;;;;;;;25.82;13.40;;;;;;;3.48;69.26;97865.25;1684593;85;21056;-78
2022/02/25 10:09:39;;;;;;;25.57;13.28;;;;;;;3.67;69.84;97866.51;1684192;85;21068;-78
2022/02/25 10:12:12;;;;;;;25.50;13.03;;;;;;;3.85;68.37;97864.70;1696668;84;21064;-77
2022/02/25 10:14:45;;;;;;;23.17;12.53;;;;;;;4.03;68.50;97848.84;1704733;84;21028;-77
2022/02/25 10:17:19;;;;;;;25.97;12.47;;;;;;;4.20;69.39;97846.13;1676393;86;21454;-78
2022/02/25 10:19:55;;;;;;;22.45;11.03;;;;;;;4.28;67.59;97841.28;1676321;86;21012;-78
2022/02/25 10:22:32;;;;;;;20.20;11.68;;;;;;;4.27;68.50;97838.23;1709290;83;21050;-78
2022/02/25 10:25:09;;;;;;;27.37;12.88;;;;;;;4.26;67.11;97842.60;1695017;85;21064;-78
2022/02/25 10:27:40;;;;;;;22.10;12.35;;;;;;;4.31;66.97;97841.24;1694599;85;21048;-77
2022/02/25 10:30:17;;;;;;;24.02;11.60;;;;;;;4.35;65.82;97839.91;1709910;83;21012;-78
2022/02/25 10:32:50;;;;;;;25.10;11.83;;;;;;;4.43;65.54;97844.22;1706466;84;21040;-78
2022/02/25 10:35:31;;;;;;;25.82;12.75;;;;;;;4.55;66.07;97836.27;1686791;84;21075;-78
2022/02/25 10:38:11;;;;;;;24.43;13.43;;;;;;;4.67;65.85;97831.80;1685489;84;21474;-77
2022/02/25 10:40:51;;;;;;;23.52;12.30;;;;;;;4.80;66.55;97841.31;1693983;84;21035;-78
2022/02/25 10:43:25;;;;;;;20.68;11.12;;;;;;;4.92;66.13;97825.89;1700393;84;21475;-77
2022/02/25 10:45:57;;;;;;;20.08;9.35;;;;;;;5.03;62.46;97816.61;1712995;84;21040;-77
2022/02/25 10:48:33;;;;;;;18.37;9.80;;;;;;;5.12;60.71;97811.69;1712079;84;21052;-77
2022/02/25 10:51:04;;;;;;;23.35;11.48;;;;;;;5.31;63.35;97809.72;1705210;84;21055;-78
2022/02/25 10:53:43;;;;;;;19.37;10.98;;;;;;;5.90;63.06;97799.78;1671107;86;21044;-78
2022/02/25 10:56:14;;;;;;;17.92;10.72;;;;;;;6.99;59.42;97799.39;1689291;85;21423;-78
2022/02/25 10:58:51;;;;;;;19.52;11.03;;;;;;;8.30;56.82;97790.55;1688609;84;21100;-78
2022/02/25 11:01:37;;;;;;;21.23;11.75;;;;;;;9.37;53.70;97774.64;1702280;84;21027;-77
2022/02/25 11:04:09;;;;;;;18.77;10.63;;;;;;;10.62;56.03;97767.34;1690634;85;21462;-78
2022/02/25 11:06:36;;;;;;;18.35;10.40;;;;;;;11.89;51.61;97756.66;1716551;83;21036;-78
2022/02/25 11:09:05;;;;;;;19.77;11.15;;;;;;;12.94;49.23;97751.55;1690322;84;21027;-76
2022/02/25 11:11:34;;;;;;;17.30;10.40;;;;;;;13.71;50.10;97745.55;1709397;84;21012;-79
2022/02/25 11:14:08;;;;;;;23.90;11.28;;;;;;;14.48;45.35;97741.45;1709375;84;21111;-79
2022/02/25 11:16:39;;;;;;;16.73;10.20;;;;;;;15.09;41.60;97731.77;1709498;84;21000;-79
2022/02/25 11:19:08;;;;;;;15.80;10.05;;;;;;;15.67;37.40;97726.47;1708672;84;21047;-79
2022/02/25 11:21:36;;;;;;;18.12;10.90;;;;;;;15.95;37.16;97746.83;1681416;85;21321;-79
2022/02/25 11:24:05;;;;;;;19.27;11.10;;;;;;;16.91;38.99;97753.86;1681497;85;20992;-79
2022/02/25 11:26:31;;;;;;;17.75;10.70;;;;;;;17.02;34.96;97743.83;1681463;85;21061;-79
2022/02/25 11:29:01;;;;;;;16.05;10.98;;;;;;;17.22;34.26;97733.29;1693001;84;21450;-79
2022/02/25 11:31:35;;;;;;;18.07;10.78;;;;;;;18.00;34.93;97731.63;1695799;85;20999;-76